sensor_id;sensor_type;location;lat;lon;timestamp;P1;durP1;ratioP1;P2;durP2;ratioP2
13122;SDS011;6627;50.920;12.050;2023-06-24T00:01:19;36.77;;;21.70;;
13122;SDS011;6627;50.920;12.050;2023-06-24T00:03:50;44.30;;;23.87;;
13122;SDS011;6627;50.920;12.050;2023-06-24T00:06:20;40.50;;;23.50;;
13122;SDS011;6627;50.920;12.050;2023-06-24T00:08:54;42.83;;;23.30;;
13122;SDS011;6627;50.920;12.050;2023-06-24T00:11:28;43.27;;;23.10;;
13122;SDS011;6627;50.920;12.050;2023-06-24T00:13:57;40.87;;;23.33;;
13122;SDS011;6627;50.920;12.050;2023-06-24T00:16:27;37.73;;;22.23;;
13122;SDS011;6627;50.920;12.050;2023-06-24T00:18:55;39.47;;;22.23;;
13122;SDS011;6627;50.920;12.050;2023-06-24T00:21:27;43.47;;;22.43;;
13122;SDS011;6627;50.920;12.050;2023-06-24T00:23:56;45.27;;;23.13;;
13122;SDS011;6627;50.920;12.050;2023-06-24T00:26:27;36.53;;;22.40;;
13122;SDS011;6627;50.920;12.050;2023-06-24T00:28:57;33.97;;;21.60;;
13122;SDS011;6627;50.920;12.050;2023-06-24T00:31:25;35.00;;;21.77;;
13122;SDS011;6627;50.920;12.050;2023-06-24T00:33:55;37.93;;;22.00;;
13122;SDS011;6627;50.920;12.050;2023-06-24T00:36:25;34.90;;;21.73;;
13122;SDS011;6627;50.920;12.050;2023-06-24T00:38:55;36.93;;;21.20;;
13122;SDS011;6627;50.920;12.050;2023-06-24T00:41:25;30.93;;;20.77;;
13122;SDS011;6627;50.920;12.050;2023-06-24T00:43:53;42.40;;;21.77;;
13122;SDS011;6627;50.920;12.050;2023-06-24T00:46:25;39.83;;;22.00;;
13122;SDS011;6627;50.920;12.050;2023-06-24T00:48:57;80.70;;;24.90;;
13122;SDS011;6627;50.920;12.050;2023-06-24T00:51:26;42.10;;;22.10;;
13122;SDS011;6627;50.920;12.050;2023-06-24T00:53:59;45.47;;;22.10;;
13122;SDS011;6627;50.920;12.050;2023-06-24T00:56:31;43.10;;;21.87;;
13122;SDS011;6627;50.920;12.050;2023-06-24T00:59:02;41.77;;;22.53;;
13122;SDS011;6627;50.920;12.050;2023-06-24T01:01:33;39.17;;;22.07;;
13122;SDS011;6627;50.920;12.050;2023-06-24T01:04:04;44.23;;;21.97;;
13122;SDS011;6627;50.920;12.050;2023-06-24T01:06:37;44.43;;;23.00;;
13122;SDS011;6627;50.920;12.050;2023-06-24T01:09:09;43.87;;;22.90;;
13122;SDS011;6627;50.920;12.050;2023-06-24T01:11:37;41.83;;;23.40;;
13122;SDS011;6627;50.920;12.050;2023-06-24T01:14:08;40.20;;;23.87;;
13122;SDS011;6627;50.920;12.050;2023-06-24T01:16:40;38.90;;;22.47;;
13122;SDS011;6627;50.920;12.050;2023-06-24T01:19:23;45.13;;;23.80;;
13122;SDS011;6627;50.920;12.050;2023-06-24T01:22:08;35.10;;;21.73;;
13122;SDS011;6627;50.920;12.050;2023-06-24T01:24:48;30.67;;;20.67;;
13122;SDS011;6627;50.920;12.050;2023-06-24T01:27:32;40.07;;;22.20;;
13122;SDS011;6627;50.920;12.050;2023-06-24T01:30:27;40.47;;;22.43;;
13122;SDS011;6627;50.920;12.050;2023-06-24T01:33:19;41.57;;;23.00;;
13122;SDS011;6627;50.920;12.050;2023-06-24T01:35:53;44.53;;;24.07;;
13122;SDS011;6627;50.920;12.050;2023-06-24T01:38:27;46.00;;;24.27;;
13122;SDS011;6627;50.920;12.050;2023-06-24T01:41:04;37.73;;;22.33;;
13122;SDS011;6627;50.920;12.050;2023-06-24T01:43:35;43.73;;;22.40;;
13122;SDS011;6627;50.920;12.050;2023-06-24T01:46:04;44.57;;;23.47;;
13122;SDS011;6627;50.920;12.050;2023-06-24T01:48:37;42.90;;;22.77;;
13122;SDS011;6627;50.920;12.050;2023-06-24T01:51:09;48.90;;;23.20;;
13122;SDS011;6627;50.920;12.050;2023-06-24T01:53:42;43.03;;;23.43;;
13122;SDS011;6627;50.920;12.050;2023-06-24T01:56:17;39.70;;;23.17;;
13122;SDS011;6627;50.920;12.050;2023-06-24T01:58:50;47.23;;;23.13;;
13122;SDS011;6627;50.920;12.050;2023-06-24T02:01:23;32.50;;;21.53;;
13122;SDS011;6627;50.920;12.050;2023-06-24T02:03:55;40.60;;;22.93;;
13122;SDS011;6627;50.920;12.050;2023-06-24T02:06:25;47.87;;;23.53;;
13122;SDS011;6627;50.920;12.050;2023-06-24T02:08:56;45.63;;;22.60;;
13122;SDS011;6627;50.920;12.050;2023-06-24T02:11:30;42.93;;;23.47;;
13122;SDS011;6627;50.920;12.050;2023-06-24T02:13:59;40.63;;;22.23;;
13122;SDS011;6627;50.920;12.050;2023-06-24T02:16:31;33.93;;;21.93;;
13122;SDS011;6627;50.920;12.050;2023-06-24T02:19:04;41.63;;;22.63;;
13122;SDS011;6627;50.920;12.050;2023-06-24T02:21:38;47.57;;;22.90;;
13122;SDS011;6627;50.920;12.050;2023-06-24T02:24:09;30.40;;;21.60;;
13122;SDS011;6627;50.920;12.050;2023-06-24T02:26:41;38.80;;;21.13;;
13122;SDS011;6627;50.920;12.050;2023-06-24T02:29:12;45.23;;;22.90;;
13122;SDS011;6627;50.920;12.050;2023-06-24T02:31:44;45.90;;;22.83;;
13122;SDS011;6627;50.920;12.050;2023-06-24T02:34:13;46.97;;;22.80;;
13122;SDS011;6627;50.920;12.050;2023-06-24T02:36:44;57.63;;;22.80;;
13122;SDS011;6627;50.920;12.050;2023-06-24T02:39:13;50.50;;;23.40;;
13122;SDS011;6627;50.920;12.050;2023-06-24T02:41:44;37.00;;;22.27;;
13122;SDS011;6627;50.920;12.050;2023-06-24T02:44:12;45.40;;;22.93;;
13122;SDS011;6627;50.920;12.050;2023-06-24T02:46:43;38.20;;;22.57;;
13122;SDS011;6627;50.920;12.050;2023-06-24T02:49:16;38.00;;;22.90;;
13122;SDS011;6627;50.920;12.050;2023-06-24T02:51:48;27.63;;;20.63;;
13122;SDS011;6627;50.920;12.050;2023-06-24T02:54:19;47.10;;;21.77;;
13122;SDS011;6627;50.920;12.050;2023-06-24T02:56:49;44.40;;;22.87;;
13122;SDS011;6627;50.920;12.050;2023-06-24T02:59:19;30.13;;;21.73;;
13122;SDS011;6627;50.920;12.050;2023-06-24T03:01:47;38.33;;;22.77;;
13122;SDS011;6627;50.920;12.050;2023-06-24T03:04:17;41.23;;;21.50;;
13122;SDS011;6627;50.920;12.050;2023-06-24T03:06:49;34.47;;;21.80;;
13122;SDS011;6627;50.920;12.050;2023-06-24T03:09:19;33.27;;;22.03;;
13122;SDS011;6627;50.920;12.050;2023-06-24T03:11:49;53.80;;;24.20;;
13122;SDS011;6627;50.920;12.050;2023-06-24T03:14:18;37.13;;;22.63;;
13122;SDS011;6627;50.920;12.050;2023-06-24T03:16:48;33.03;;;21.83;;
13122;SDS011;6627;50.920;12.050;2023-06-24T03:19:20;40.97;;;24.07;;
13122;SDS011;6627;50.920;12.050;2023-06-24T03:21:49;41.80;;;22.63;;
13122;SDS011;6627;50.920;12.050;2023-06-24T03:24:19;51.47;;;23.83;;
13122;SDS011;6627;50.920;12.050;2023-06-24T03:26:49;38.80;;;22.53;;
13122;SDS011;6627;50.920;12.050;2023-06-24T03:29:24;40.90;;;22.50;;
13122;SDS011;6627;50.920;12.050;2023-06-24T03:31:55;35.07;;;22.13;;
13122;SDS011;6627;50.920;12.050;2023-06-24T03:34:24;33.37;;;22.50;;
13122;SDS011;6627;50.920;12.050;2023-06-24T03:36:55;40.97;;;22.87;;
13122;SDS011;6627;50.920;12.050;2023-06-24T03:39:25;37.10;;;23.83;;
13122;SDS011;6627;50.920;12.050;2023-06-24T03:41:55;36.07;;;23.07;;
13122;SDS011;6627;50.920;12.050;2023-06-24T03:44:25;33.20;;;22.37;;
13122;SDS011;6627;50.920;12.050;2023-06-24T03:46:56;37.77;;;23.03;;
13122;SDS011;6627;50.920;12.050;2023-06-24T03:49:27;37.30;;;23.27;;
13122;SDS011;6627;50.920;12.050;2023-06-24T03:51:57;48.13;;;23.13;;
13122;SDS011;6627;50.920;12.050;2023-06-24T03:54:27;36.40;;;23.17;;
13122;SDS011;6627;50.920;12.050;2023-06-24T03:56:58;40.97;;;23.73;;
13122;SDS011;6627;50.920;12.050;2023-06-24T03:59:28;49.77;;;24.37;;
13122;SDS011;6627;50.920;12.050;2023-06-24T04:01:56;44.30;;;23.43;;
13122;SDS011;6627;50.920;12.050;2023-06-24T04:04:23;42.47;;;23.80;;
13122;SDS011;6627;50.920;12.050;2023-06-24T04:06:55;47.43;;;25.80;;
13122;SDS011;6627;50.920;12.050;2023-06-24T04:09:25;41.33;;;24.17;;
13122;SDS011;6627;50.920;12.050;2023-06-24T04:11:55;40.50;;;25.47;;
13122;SDS011;6627;50.920;12.050;2023-06-24T04:14:24;48.27;;;24.93;;
13122;SDS011;6627;50.920;12.050;2023-06-24T04:16:55;43.27;;;25.20;;
13122;SDS011;6627;50.920;12.050;2023-06-24T04:19:25;41.93;;;25.53;;
13122;SDS011;6627;50.920;12.050;2023-06-24T04:21:58;36.57;;;24.37;;
13122;SDS011;6627;50.920;12.050;2023-06-24T04:24:27;37.90;;;24.83;;
13122;SDS011;6627;50.920;12.050;2023-06-24T04:26:57;38.07;;;25.27;;
13122;SDS011;6627;50.920;12.050;2023-06-24T04:29:26;41.17;;;25.70;;
13122;SDS011;6627;50.920;12.050;2023-06-24T04:31:56;44.03;;;26.33;;
13122;SDS011;6627;50.920;12.050;2023-06-24T04:34:27;34.13;;;25.20;;
13122;SDS011;6627;50.920;12.050;2023-06-24T04:36:58;44.63;;;28.33;;
13122;SDS011;6627;50.920;12.050;2023-06-24T04:39:29;44.00;;;28.73;;
13122;SDS011;6627;50.920;12.050;2023-06-24T04:41:59;47.50;;;29.13;;
13122;SDS011;6627;50.920;12.050;2023-06-24T04:44:28;45.87;;;28.73;;
13122;SDS011;6627;50.920;12.050;2023-06-24T04:46:59;49.20;;;29.47;;
13122;SDS011;6627;50.920;12.050;2023-06-24T04:49:29;49.53;;;29.90;;
13122;SDS011;6627;50.920;12.050;2023-06-24T04:52:01;40.37;;;27.47;;
13122;SDS011;6627;50.920;12.050;2023-06-24T04:54:29;40.87;;;28.80;;
13122;SDS011;6627;50.920;12.050;2023-06-24T04:56:59;48.57;;;29.83;;
13122;SDS011;6627;50.920;12.050;2023-06-24T04:59:29;46.47;;;30.50;;
13122;SDS011;6627;50.920;12.050;2023-06-24T05:01:56;40.27;;;28.33;;
13122;SDS011;6627;50.920;12.050;2023-06-24T05:04:26;42.17;;;29.27;;
13122;SDS011;6627;50.920;12.050;2023-06-24T05:06:56;45.07;;;29.87;;
13122;SDS011;6627;50.920;12.050;2023-06-24T05:09:28;48.03;;;31.03;;
13122;SDS011;6627;50.920;12.050;2023-06-24T05:11:58;43.00;;;30.30;;
13122;SDS011;6627;50.920;12.050;2023-06-24T05:14:28;42.77;;;31.03;;
13122;SDS011;6627;50.920;12.050;2023-06-24T05:16:59;46.70;;;30.63;;
13122;SDS011;6627;50.920;12.050;2023-06-24T05:19:29;44.90;;;30.17;;
13122;SDS011;6627;50.920;12.050;2023-06-24T05:21:59;37.93;;;29.77;;
13122;SDS011;6627;50.920;12.050;2023-06-24T05:24:28;44.13;;;31.53;;
13122;SDS011;6627;50.920;12.050;2023-06-24T05:27:03;43.83;;;30.93;;
13122;SDS011;6627;50.920;12.050;2023-06-24T05:29:33;40.07;;;28.87;;
13122;SDS011;6627;50.920;12.050;2023-06-24T05:32:04;34.47;;;26.53;;
13122;SDS011;6627;50.920;12.050;2023-06-24T05:34:34;37.50;;;27.53;;
13122;SDS011;6627;50.920;12.050;2023-06-24T05:37:05;39.83;;;27.47;;
13122;SDS011;6627;50.920;12.050;2023-06-24T05:39:35;32.43;;;25.70;;
13122;SDS011;6627;50.920;12.050;2023-06-24T05:42:03;34.67;;;25.50;;
13122;SDS011;6627;50.920;12.050;2023-06-24T05:44:33;33.93;;;23.63;;
13122;SDS011;6627;50.920;12.050;2023-06-24T05:47:04;28.37;;;22.13;;
13122;SDS011;6627;50.920;12.050;2023-06-24T05:49:33;26.57;;;22.07;;
13122;SDS011;6627;50.920;12.050;2023-06-24T05:52:03;28.83;;;21.23;;
13122;SDS011;6627;50.920;12.050;2023-06-24T05:54:32;28.97;;;21.37;;
13122;SDS011;6627;50.920;12.050;2023-06-24T05:57:04;26.53;;;20.37;;
13122;SDS011;6627;50.920;12.050;2023-06-24T05:59:33;29.60;;;22.70;;
13122;SDS011;6627;50.920;12.050;2023-06-24T06:02:03;26.40;;;21.70;;
13122;SDS011;6627;50.920;12.050;2023-06-24T06:04:31;29.30;;;22.67;;
13122;SDS011;6627;50.920;12.050;2023-06-24T06:06:59;28.53;;;23.00;;
13122;SDS011;6627;50.920;12.050;2023-06-24T06:09:29;36.67;;;25.67;;
13122;SDS011;6627;50.920;12.050;2023-06-24T06:12:00;35.83;;;26.10;;
13122;SDS011;6627;50.920;12.050;2023-06-24T06:14:29;34.63;;;26.63;;
13122;SDS011;6627;50.920;12.050;2023-06-24T06:16:59;32.70;;;25.50;;
13122;SDS011;6627;50.920;12.050;2023-06-24T06:19:29;36.00;;;25.37;;
13122;SDS011;6627;50.920;12.050;2023-06-24T06:21:59;31.47;;;25.27;;
13122;SDS011;6627;50.920;12.050;2023-06-24T06:24:29;33.07;;;25.20;;
13122;SDS011;6627;50.920;12.050;2023-06-24T06:27:00;37.17;;;26.20;;
13122;SDS011;6627;50.920;12.050;2023-06-24T06:29:29;30.97;;;25.40;;
13122;SDS011;6627;50.920;12.050;2023-06-24T06:31:59;31.97;;;25.33;;
13122;SDS011;6627;50.920;12.050;2023-06-24T06:34:27;35.20;;;25.23;;
13122;SDS011;6627;50.920;12.050;2023-06-24T06:36:57;29.47;;;24.90;;
13122;SDS011;6627;50.920;12.050;2023-06-24T06:39:27;31.10;;;25.53;;
13122;SDS011;6627;50.920;12.050;2023-06-24T06:41:58;30.70;;;25.03;;
13122;SDS011;6627;50.920;12.050;2023-06-24T06:44:29;34.97;;;25.67;;
13122;SDS011;6627;50.920;12.050;2023-06-24T06:46:59;28.60;;;23.97;;
13122;SDS011;6627;50.920;12.050;2023-06-24T06:49:29;29.67;;;23.80;;
13122;SDS011;6627;50.920;12.050;2023-06-24T06:51:58;27.27;;;23.07;;
13122;SDS011;6627;50.920;12.050;2023-06-24T06:54:26;23.70;;;21.17;;
13122;SDS011;6627;50.920;12.050;2023-06-24T06:57:01;25.43;;;20.83;;
13122;SDS011;6627;50.920;12.050;2023-06-24T06:59:29;24.20;;;20.53;;
13122;SDS011;6627;50.920;12.050;2023-06-24T07:01:58;23.77;;;21.17;;
13122;SDS011;6627;50.920;12.050;2023-06-24T07:04:29;25.10;;;20.63;;
13122;SDS011;6627;50.920;12.050;2023-06-24T07:06:59;23.27;;;20.87;;
13122;SDS011;6627;50.920;12.050;2023-06-24T07:09:29;22.73;;;19.67;;
13122;SDS011;6627;50.920;12.050;2023-06-24T07:12:00;22.67;;;20.20;;
13122;SDS011;6627;50.920;12.050;2023-06-24T07:14:29;27.03;;;21.93;;
13122;SDS011;6627;50.920;12.050;2023-06-24T07:16:59;22.87;;;20.47;;
13122;SDS011;6627;50.920;12.050;2023-06-24T07:19:28;22.23;;;19.93;;
13122;SDS011;6627;50.920;12.050;2023-06-24T07:21:59;24.27;;;20.33;;
13122;SDS011;6627;50.920;12.050;2023-06-24T07:24:26;22.87;;;19.93;;
13122;SDS011;6627;50.920;12.050;2023-06-24T07:26:56;24.17;;;21.70;;
13122;SDS011;6627;50.920;12.050;2023-06-24T07:29:28;26.07;;;21.50;;
13122;SDS011;6627;50.920;12.050;2023-06-24T07:31:58;22.67;;;20.37;;
13122;SDS011;6627;50.920;12.050;2023-06-24T07:34:29;18.37;;;16.33;;
13122;SDS011;6627;50.920;12.050;2023-06-24T07:36:59;16.60;;;14.80;;
13122;SDS011;6627;50.920;12.050;2023-06-24T07:39:29;16.63;;;11.47;;
13122;SDS011;6627;50.920;12.050;2023-06-24T07:41:59;14.77;;;13.30;;
13122;SDS011;6627;50.920;12.050;2023-06-24T07:44:30;13.67;;;12.37;;
13122;SDS011;6627;50.920;12.050;2023-06-24T07:46:59;13.50;;;12.17;;
13122;SDS011;6627;50.920;12.050;2023-06-24T07:49:29;11.87;;;10.67;;
13122;SDS011;6627;50.920;12.050;2023-06-24T07:51:59;12.27;;;11.00;;
13122;SDS011;6627;50.920;12.050;2023-06-24T07:54:30;11.67;;;10.47;;
13122;SDS011;6627;50.920;12.050;2023-06-24T07:56:59;11.00;;;9.80;;
13122;SDS011;6627;50.920;12.050;2023-06-24T07:59:30;9.43;;;8.40;;
13122;SDS011;6627;50.920;12.050;2023-06-24T08:01:58;10.60;;;9.30;;
13122;SDS011;6627;50.920;12.050;2023-06-24T08:04:29;9.73;;;8.33;;
13122;SDS011;6627;50.920;12.050;2023-06-24T08:06:58;10.10;;;8.47;;
13122;SDS011;6627;50.920;12.050;2023-06-24T08:09:28;13.60;;;8.90;;
13122;SDS011;6627;50.920;12.050;2023-06-24T08:11:58;8.60;;;7.80;;
13122;SDS011;6627;50.920;12.050;2023-06-24T08:14:27;10.03;;;8.90;;
13122;SDS011;6627;50.920;12.050;2023-06-24T08:16:57;11.10;;;8.20;;
13122;SDS011;6627;50.920;12.050;2023-06-24T08:19:27;9.90;;;8.77;;
13122;SDS011;6627;50.920;12.050;2023-06-24T08:21:58;9.43;;;7.63;;
13122;SDS011;6627;50.920;12.050;2023-06-24T08:24:28;9.63;;;7.63;;
13122;SDS011;6627;50.920;12.050;2023-06-24T08:26:58;10.13;;;7.73;;
13122;SDS011;6627;50.920;12.050;2023-06-24T08:29:29;9.97;;;7.37;;
13122;SDS011;6627;50.920;12.050;2023-06-24T08:32:00;9.43;;;7.40;;
13122;SDS011;6627;50.920;12.050;2023-06-24T08:34:29;9.13;;;7.83;;
13122;SDS011;6627;50.920;12.050;2023-06-24T08:36:59;7.57;;;6.87;;
13122;SDS011;6627;50.920;12.050;2023-06-24T08:39:28;8.87;;;7.37;;
13122;SDS011;6627;50.920;12.050;2023-06-24T08:41:58;7.47;;;6.77;;
13122;SDS011;6627;50.920;12.050;2023-06-24T08:44:26;10.37;;;7.40;;
13122;SDS011;6627;50.920;12.050;2023-06-24T08:46:56;8.90;;;6.73;;
13122;SDS011;6627;50.920;12.050;2023-06-24T08:49:28;6.93;;;6.23;;
13122;SDS011;6627;50.920;12.050;2023-06-24T08:52:00;14.40;;;6.87;;
13122;SDS011;6627;50.920;12.050;2023-06-24T08:54:30;8.00;;;7.20;;
13122;SDS011;6627;50.920;12.050;2023-06-24T08:57:02;10.17;;;7.47;;
13122;SDS011;6627;50.920;12.050;2023-06-24T08:59:32;10.50;;;6.73;;
13122;SDS011;6627;50.920;12.050;2023-06-24T09:02:03;7.50;;;6.63;;
13122;SDS011;6627;50.920;12.050;2023-06-24T09:04:33;7.57;;;5.73;;
13122;SDS011;6627;50.920;12.050;2023-06-24T09:07:04;8.23;;;5.30;;
13122;SDS011;6627;50.920;12.050;2023-06-24T09:09:32;7.93;;;5.60;;
13122;SDS011;6627;50.920;12.050;2023-06-24T09:12:10;8.20;;;5.80;;
13122;SDS011;6627;50.920;12.050;2023-06-24T09:14:42;5.57;;;5.07;;
13122;SDS011;6627;50.920;12.050;2023-06-24T09:17:17;7.77;;;5.90;;
13122;SDS011;6627;50.920;12.050;2023-06-24T09:19:50;8.80;;;5.50;;
13122;SDS011;6627;50.920;12.050;2023-06-24T09:22:19;6.23;;;5.10;;
13122;SDS011;6627;50.920;12.050;2023-06-24T09:24:48;6.23;;;4.43;;
13122;SDS011;6627;50.920;12.050;2023-06-24T09:27:17;6.33;;;5.13;;
13122;SDS011;6627;50.920;12.050;2023-06-24T09:29:49;7.53;;;5.10;;
13122;SDS011;6627;50.920;12.050;2023-06-24T09:32:19;5.93;;;5.37;;
13122;SDS011;6627;50.920;12.050;2023-06-24T09:34:50;7.50;;;5.90;;
13122;SDS011;6627;50.920;12.050;2023-06-24T09:37:22;7.80;;;5.57;;
13122;SDS011;6627;50.920;12.050;2023-06-24T09:39:59;8.50;;;6.00;;
13122;SDS011;6627;50.920;12.050;2023-06-24T09:42:29;6.13;;;5.40;;
13122;SDS011;6627;50.920;12.050;2023-06-24T09:44:58;5.97;;;5.10;;
13122;SDS011;6627;50.920;12.050;2023-06-24T09:47:33;8.97;;;5.80;;
13122;SDS011;6627;50.920;12.050;2023-06-24T09:50:04;7.23;;;5.40;;
13122;SDS011;6627;50.920;12.050;2023-06-24T09:52:32;8.13;;;5.70;;
13122;SDS011;6627;50.920;12.050;2023-06-24T09:55:04;5.67;;;5.17;;
13122;SDS011;6627;50.920;12.050;2023-06-24T09:57:33;6.37;;;5.10;;
13122;SDS011;6627;50.920;12.050;2023-06-24T10:00:06;6.97;;;5.00;;
13122;SDS011;6627;50.920;12.050;2023-06-24T10:02:37;7.27;;;5.07;;
13122;SDS011;6627;50.920;12.050;2023-06-24T10:05:06;5.67;;;5.00;;
13122;SDS011;6627;50.920;12.050;2023-06-24T10:07:34;5.43;;;4.93;;
13122;SDS011;6627;50.920;12.050;2023-06-24T10:10:08;10.00;;;5.43;;
13122;SDS011;6627;50.920;12.050;2023-06-24T10:12:36;6.57;;;5.30;;
13122;SDS011;6627;50.920;12.050;2023-06-24T10:15:05;6.80;;;5.20;;
13122;SDS011;6627;50.920;12.050;2023-06-24T10:17:36;5.40;;;4.90;;
13122;SDS011;6627;50.920;12.050;2023-06-24T10:20:07;7.37;;;5.00;;
13122;SDS011;6627;50.920;12.050;2023-06-24T10:22:37;6.60;;;4.60;;
13122;SDS011;6627;50.920;12.050;2023-06-24T10:25:05;6.60;;;4.40;;
13122;SDS011;6627;50.920;12.050;2023-06-24T10:27:38;5.10;;;4.70;;
13122;SDS011;6627;50.920;12.050;2023-06-24T10:30:16;5.67;;;4.97;;
13122;SDS011;6627;50.920;12.050;2023-06-24T10:32:50;5.40;;;4.50;;
13122;SDS011;6627;50.920;12.050;2023-06-24T10:35:24;5.57;;;4.60;;
13122;SDS011;6627;50.920;12.050;2023-06-24T10:37:58;8.57;;;4.67;;
13122;SDS011;6627;50.920;12.050;2023-06-24T10:40:36;6.73;;;4.50;;
13122;SDS011;6627;50.920;12.050;2023-06-24T10:43:23;5.47;;;4.57;;
13122;SDS011;6627;50.920;12.050;2023-06-24T10:45:57;5.10;;;4.60;;
13122;SDS011;6627;50.920;12.050;2023-06-24T10:48:28;6.13;;;4.50;;
13122;SDS011;6627;50.920;12.050;2023-06-24T10:50:59;6.10;;;4.30;;
13122;SDS011;6627;50.920;12.050;2023-06-24T10:53:28;4.80;;;4.10;;
13122;SDS011;6627;50.920;12.050;2023-06-24T10:55:58;6.60;;;4.53;;
13122;SDS011;6627;50.920;12.050;2023-06-24T10:58:29;5.17;;;4.03;;
13122;SDS011;6627;50.920;12.050;2023-06-24T11:01:06;4.97;;;4.17;;
13122;SDS011;6627;50.920;12.050;2023-06-24T11:03:35;4.30;;;3.90;;
13122;SDS011;6627;50.920;12.050;2023-06-24T11:06:08;6.43;;;4.70;;
13122;SDS011;6627;50.920;12.050;2023-06-24T11:08:44;7.17;;;4.47;;
13122;SDS011;6627;50.920;12.050;2023-06-24T11:11:18;3.90;;;3.60;;
13122;SDS011;6627;50.920;12.050;2023-06-24T11:13:49;5.47;;;3.93;;
13122;SDS011;6627;50.920;12.050;2023-06-24T11:16:22;3.83;;;3.43;;
13122;SDS011;6627;50.920;12.050;2023-06-24T11:18:52;5.50;;;3.70;;
13122;SDS011;6627;50.920;12.050;2023-06-24T11:21:29;6.90;;;4.10;;
13122;SDS011;6627;50.920;12.050;2023-06-24T11:24:01;5.13;;;4.20;;
13122;SDS011;6627;50.920;12.050;2023-06-24T11:26:29;5.93;;;4.10;;
13122;SDS011;6627;50.920;12.050;2023-06-24T11:28:59;5.67;;;3.77;;
13122;SDS011;6627;50.920;12.050;2023-06-24T11:31:29;4.40;;;4.00;;
13122;SDS011;6627;50.920;12.050;2023-06-24T11:33:59;5.70;;;4.00;;
13122;SDS011;6627;50.920;12.050;2023-06-24T11:36:30;4.40;;;4.00;;
13122;SDS011;6627;50.920;12.050;2023-06-24T11:38:59;5.07;;;4.17;;
13122;SDS011;6627;50.920;12.050;2023-06-24T11:41:29;3.90;;;3.60;;
13122;SDS011;6627;50.920;12.050;2023-06-24T11:43:58;4.77;;;4.27;;
13122;SDS011;6627;50.920;12.050;2023-06-24T11:46:29;5.13;;;4.10;;
13122;SDS011;6627;50.920;12.050;2023-06-24T11:49:02;6.07;;;3.90;;
13122;SDS011;6627;50.920;12.050;2023-06-24T11:51:35;4.30;;;3.90;;
13122;SDS011;6627;50.920;12.050;2023-06-24T11:54:06;5.13;;;4.00;;
13122;SDS011;6627;50.920;12.050;2023-06-24T11:56:34;4.60;;;3.90;;
13122;SDS011;6627;50.920;12.050;2023-06-24T11:59:04;4.60;;;4.10;;
13122;SDS011;6627;50.920;12.050;2023-06-24T12:01:34;4.53;;;4.13;;
13122;SDS011;6627;50.920;12.050;2023-06-24T12:04:09;4.27;;;3.57;;
13122;SDS011;6627;50.920;12.050;2023-06-24T12:06:38;4.30;;;3.77;;
13122;SDS011;6627;50.920;12.050;2023-06-24T12:09:09;5.47;;;3.77;;
13122;SDS011;6627;50.920;12.050;2023-06-24T12:11:37;6.20;;;3.90;;
13122;SDS011;6627;50.920;12.050;2023-06-24T12:14:07;3.70;;;3.40;;
13122;SDS011;6627;50.920;12.050;2023-06-24T12:16:37;5.60;;;4.20;;
13122;SDS011;6627;50.920;12.050;2023-06-24T12:19:07;7.10;;;3.90;;
13122;SDS011;6627;50.920;12.050;2023-06-24T12:21:38;8.73;;;3.77;;
13122;SDS011;6627;50.920;12.050;2023-06-24T12:24:08;3.97;;;3.57;;
13122;SDS011;6627;50.920;12.050;2023-06-24T12:26:41;4.13;;;3.40;;
13122;SDS011;6627;50.920;12.050;2023-06-24T12:29:09;5.37;;;3.90;;
13122;SDS011;6627;50.920;12.050;2023-06-24T12:31:37;10.43;;;3.70;;
13122;SDS011;6627;50.920;12.050;2023-06-24T12:34:07;4.07;;;3.67;;
13122;SDS011;6627;50.920;12.050;2023-06-24T12:36:36;4.60;;;3.70;;
13122;SDS011;6627;50.920;12.050;2023-06-24T12:39:06;3.83;;;3.40;;
13122;SDS011;6627;50.920;12.050;2023-06-24T12:41:35;5.27;;;3.53;;
13122;SDS011;6627;50.920;12.050;2023-06-24T12:44:06;4.93;;;3.87;;
13122;SDS011;6627;50.920;12.050;2023-06-24T12:46:36;3.83;;;3.50;;
13122;SDS011;6627;50.920;12.050;2023-06-24T12:49:05;4.00;;;3.40;;
13122;SDS011;6627;50.920;12.050;2023-06-24T12:51:34;5.47;;;3.80;;
13122;SDS011;6627;50.920;12.050;2023-06-24T12:54:05;5.33;;;3.70;;
13122;SDS011;6627;50.920;12.050;2023-06-24T12:56:33;4.50;;;3.47;;
13122;SDS011;6627;50.920;12.050;2023-06-24T12:59:03;4.70;;;4.23;;
13122;SDS011;6627;50.920;12.050;2023-06-24T13:01:34;6.03;;;3.60;;
13122;SDS011;6627;50.920;12.050;2023-06-24T13:04:02;7.07;;;4.13;;
13122;SDS011;6627;50.920;12.050;2023-06-24T13:06:33;3.73;;;3.33;;
13122;SDS011;6627;50.920;12.050;2023-06-24T13:09:03;5.47;;;3.40;;
13122;SDS011;6627;50.920;12.050;2023-06-24T13:11:34;3.80;;;3.10;;
13122;SDS011;6627;50.920;12.050;2023-06-24T13:14:05;4.43;;;3.50;;
13122;SDS011;6627;50.920;12.050;2023-06-24T13:16:37;5.23;;;3.33;;
13122;SDS011;6627;50.920;12.050;2023-06-24T13:19:08;3.50;;;3.20;;
13122;SDS011;6627;50.920;12.050;2023-06-24T13:21:36;5.67;;;3.30;;
13122;SDS011;6627;50.920;12.050;2023-06-24T13:24:08;5.37;;;3.60;;
13122;SDS011;6627;50.920;12.050;2023-06-24T13:26:37;5.17;;;3.23;;
13122;SDS011;6627;50.920;12.050;2023-06-24T13:29:05;5.83;;;3.57;;
13122;SDS011;6627;50.920;12.050;2023-06-24T13:31:35;4.37;;;3.43;;
13122;SDS011;6627;50.920;12.050;2023-06-24T13:34:06;7.07;;;3.37;;
13122;SDS011;6627;50.920;12.050;2023-06-24T13:36:37;3.77;;;3.47;;
13122;SDS011;6627;50.920;12.050;2023-06-24T13:39:10;4.53;;;3.13;;
13122;SDS011;6627;50.920;12.050;2023-06-24T13:41:41;3.30;;;3.00;;
13122;SDS011;6627;50.920;12.050;2023-06-24T13:44:11;3.90;;;3.50;;
13122;SDS011;6627;50.920;12.050;2023-06-24T13:46:41;3.93;;;3.47;;
13122;SDS011;6627;50.920;12.050;2023-06-24T13:49:09;4.07;;;3.67;;
13122;SDS011;6627;50.920;12.050;2023-06-24T13:51:37;3.83;;;3.43;;
13122;SDS011;6627;50.920;12.050;2023-06-24T13:54:08;5.60;;;3.97;;
13122;SDS011;6627;50.920;12.050;2023-06-24T13:56:38;3.70;;;3.40;;
13122;SDS011;6627;50.920;12.050;2023-06-24T13:59:08;4.43;;;3.70;;
13122;SDS011;6627;50.920;12.050;2023-06-24T14:01:37;3.87;;;3.20;;
13122;SDS011;6627;50.920;12.050;2023-06-24T14:04:07;5.37;;;3.57;;
13122;SDS011;6627;50.920;12.050;2023-06-24T14:06:35;4.23;;;3.30;;
13122;SDS011;6627;50.920;12.050;2023-06-24T14:09:02;3.83;;;3.43;;
13122;SDS011;6627;50.920;12.050;2023-06-24T14:11:32;4.50;;;3.40;;
13122;SDS011;6627;50.920;12.050;2023-06-24T14:14:04;5.27;;;3.10;;
13122;SDS011;6627;50.920;12.050;2023-06-24T14:16:32;4.93;;;3.30;;
13122;SDS011;6627;50.920;12.050;2023-06-24T14:19:02;3.97;;;3.60;;
13122;SDS011;6627;50.920;12.050;2023-06-24T14:21:32;3.57;;;3.27;;
13122;SDS011;6627;50.920;12.050;2023-06-24T14:24:05;5.93;;;3.47;;
13122;SDS011;6627;50.920;12.050;2023-06-24T14:26:37;3.87;;;3.00;;
13122;SDS011;6627;50.920;12.050;2023-06-24T14:29:08;4.50;;;3.00;;
13122;SDS011;6627;50.920;12.050;2023-06-24T14:31:37;4.37;;;3.50;;
13122;SDS011;6627;50.920;12.050;2023-06-24T14:34:07;5.63;;;3.40;;
13122;SDS011;6627;50.920;12.050;2023-06-24T14:36:36;4.80;;;3.30;;
13122;SDS011;6627;50.920;12.050;2023-06-24T14:39:06;3.70;;;3.40;;
13122;SDS011;6627;50.920;12.050;2023-06-24T14:41:35;6.57;;;3.40;;
13122;SDS011;6627;50.920;12.050;2023-06-24T14:44:05;4.33;;;3.00;;
13122;SDS011;6627;50.920;12.050;2023-06-24T14:46:36;3.77;;;3.30;;
13122;SDS011;6627;50.920;12.050;2023-06-24T14:49:06;3.97;;;3.53;;
13122;SDS011;6627;50.920;12.050;2023-06-24T14:51:33;4.37;;;3.40;;
13122;SDS011;6627;50.920;12.050;2023-06-24T14:54:03;4.03;;;3.63;;